Time;durP1;ratioP1;P1;durP2;ratioP2;P2;SDS_P1;SDS_P2;PMS_P1;PMS_P2;Temp;Humidity;BMP_temperature;BMP_pressure;BME280_temperature;BME280_humidity;BME280_pressure;Samples;Min_cycle;Max_cycle;Signal;HPM_P1;HPM_P2
2022/07/14 00:02:18;;;;;;;;;;;15.80;99.90;;;;;;5008961;28;20377;-75
2022/07/14 00:04:43;;;;;;;;;;;15.80;99.90;;;;;;5009635;28;19927;-75
2022/07/14 00:07:09;;;;;;;;;;;15.70;99.90;;;;;;5009822;28;19920;-75
2022/07/14 00:09:34;;;;;;;;;;;15.70;99.90;;;;;;5000900;28;19989;-75
2022/07/14 00:12:00;;;;;;;;;;;15.70;99.90;;;;;;5027780;28;19929;-75
2022/07/14 00:14:26;;;;;;;;;;;15.60;99.90;;;;;;5009278;28;19921;-75
2022/07/14 00:16:51;;;;;;;;;;;15.60;99.90;;;;;;5009011;28;19949;-75
2022/07/14 00:19:17;;;;;;;;;;;15.60;99.90;;;;;;5027481;28;19923;-75
2022/07/14 00:21:43;;;;;;;;;;;15.70;99.90;;;;;;4990816;28;19975;-75
2022/07/14 00:24:11;;;;;;;;;;;15.60;99.90;;;;;;5027166;28;19921;-75
2022/07/14 00:26:39;;;;;;;;;;;15.60;99.90;;;;;;5030643;28;19925;-75
2022/07/14 00:29:05;;;;;;;;;;;15.60;99.90;;;;;;5030003;28;19991;-75
2022/07/14 00:31:31;;;;;;;;;;;15.50;99.90;;;;;;5026922;28;20753;-75
2022/07/14 00:33:56;;;;;;;;;;;15.50;99.90;;;;;;5011049;28;19917;-75
2022/07/14 00:36:22;;;;;;;;;;;15.50;99.90;;;;;;5013511;28;19924;-75
2022/07/14 00:38:47;;;;;;;;;;;15.50;99.90;;;;;;5011794;28;20384;-75
2022/07/14 00:41:13;;;;;;;;;;;15.40;99.90;;;;;;5013058;28;19921;-75
2022/07/14 00:43:38;;;;;;;;;;;15.50;99.90;;;;;;5028468;28;20377;-75
2022/07/14 00:46:04;;;;;;;;;;;15.40;99.90;;;;;;5015275;28;19966;-75
2022/07/14 00:48:30;;;;;;;;;;;15.40;99.90;;;;;;5029203;28;20004;-75
2022/07/14 00:50:55;;;;;;;;;;;15.40;99.90;;;;;;5028118;28;20017;-75
2022/07/14 00:53:21;;;;;;;;;;;15.40;99.90;;;;;;5014008;28;20369;-75
2022/07/14 00:55:46;;;;;;;;;;;15.40;99.90;;;;;;5030391;28;20373;-75
2022/07/14 00:58:12;;;;;;;;;;;15.40;99.90;;;;;;5011291;28;19925;-75
2022/07/14 01:00:38;;;;;;;;;;;15.40;99.90;;;;;;5006198;28;20010;-75
2022/07/14 01:03:05;;;;;;;;;;;15.30;99.90;;;;;;4997523;28;19921;-75
2022/07/14 01:05:31;;;;;;;;;;;15.30;99.90;;;;;;5011449;28;19952;-75
2022/07/14 01:07:56;;;;;;;;;;;15.30;99.90;;;;;;5014385;28;19928;-75
2022/07/14 01:10:22;;;;;;;;;;;15.40;99.90;;;;;;5008246;28;19917;-75
2022/07/14 01:12:47;;;;;;;;;;;15.30;99.90;;;;;;5012970;28;19936;-75
2022/07/14 01:15:14;;;;;;;;;;;15.30;99.90;;;;;;5008389;28;19921;-75
2022/07/14 01:17:40;;;;;;;;;;;15.30;99.90;;;;;;5015502;28;19917;-75
2022/07/14 01:20:06;;;;;;;;;;;15.30;99.90;;;;;;5023080;28;19923;-75
2022/07/14 01:22:31;;;;;;;;;;;15.20;99.90;;;;;;5017399;28;19920;-75
2022/07/14 01:24:57;;;;;;;;;;;15.20;99.90;;;;;;5035581;28;19975;-75
2022/07/14 01:27:22;;;;;;;;;;;15.20;99.90;;;;;;5030541;28;19921;-75
2022/07/14 01:29:48;;;;;;;;;;;15.20;99.90;;;;;;5025746;28;20504;-75
2022/07/14 01:32:13;;;;;;;;;;;15.10;99.90;;;;;;4997470;28;19960;-75
2022/07/14 01:34:39;;;;;;;;;;;15.10;99.90;;;;;;5011126;28;19940;-75
2022/07/14 01:37:04;;;;;;;;;;;15.10;99.90;;;;;;5029605;28;19917;-75
2022/07/14 01:39:30;;;;;;;;;;;15.00;99.90;;;;;;5010303;28;19979;-75
2022/07/14 01:41:56;;;;;;;;;;;15.00;99.90;;;;;;5031304;28;19916;-75
2022/07/14 01:44:21;;;;;;;;;;;15.00;99.90;;;;;;5017433;28;20000;-75
2022/07/14 01:46:47;;;;;;;;;;;15.00;99.90;;;;;;5028705;28;20010;-75
2022/07/14 01:49:12;;;;;;;;;;;15.00;99.90;;;;;;5011240;28;19928;-75
2022/07/14 01:51:38;;;;;;;;;;;15.00;99.90;;;;;;5011256;28;19917;-75
2022/07/14 01:54:07;;;;;;;;;;;14.80;99.90;;;;;;5013180;28;19986;-75
2022/07/14 01:56:37;;;;;;;;;;;15.00;99.90;;;;;;5016078;28;19917;-75
2022/07/14 01:59:02;;;;;;;;;;;14.90;99.90;;;;;;5012859;28;19927;-75
2022/07/14 02:01:40;;;;;;;;;;;14.90;99.90;;;;;;5027227;28;20295;-75
2022/07/14 02:04:15;;;;;;;;;;;14.90;99.90;;;;;;5011239;28;19923;-75
2022/07/14 02:06:42;;;;;;;;;;;14.90;99.90;;;;;;5029324;28;20402;-75
2022/07/14 02:09:08;;;;;;;;;;;14.90;99.90;;;;;;5026136;28;19931;-75
2022/07/14 02:14:17;;;;;;;;;;;14.90;99.90;;;;;;5001590;28;20121;-75
2022/07/14 02:16:43;;;;;;;;;;;14.90;99.90;;;;;;5011922;28;20007;-75
2022/07/14 02:19:08;;;;;;;;;;;14.90;99.90;;;;;;5014826;28;20023;-75
2022/07/14 02:21:34;;;;;;;;;;;14.90;99.90;;;;;;5027915;28;20008;-75
2022/07/14 02:24:00;;;;;;;;;;;14.90;99.90;;;;;;5011735;28;19924;-75
2022/07/14 02:26:26;;;;;;;;;;;14.80;99.90;;;;;;5010925;28;19924;-75
2022/07/14 02:28:53;;;;;;;;;;;14.80;99.90;;;;;;5009983;28;19921;-75
2022/07/14 02:31:18;;;;;;;;;;;14.80;99.90;;;;;;5014203;28;19967;-75
2022/07/14 02:33:45;;;;;;;;;;;14.80;99.90;;;;;;4995300;28;19917;-75
2022/07/14 02:36:11;;;;;;;;;;;14.70;99.90;;;;;;5017698;28;19916;-75
2022/07/14 02:38:37;;;;;;;;;;;14.70;99.90;;;;;;5029608;28;20023;-75
2022/07/14 02:41:03;;;;;;;;;;;14.70;99.90;;;;;;5014604;28;19921;-75
2022/07/14 02:43:29;;;;;;;;;;;14.70;99.90;;;;;;5009240;28;19983;-75
2022/07/14 02:45:54;;;;;;;;;;;14.60;99.90;;;;;;5026401;28;20392;-75
2022/07/14 02:48:22;;;;;;;;;;;14.60;99.90;;;;;;5008117;28;19960;-75
2022/07/14 02:50:48;;;;;;;;;;;14.60;99.90;;;;;;4988743;28;20914;-75
2022/07/14 02:53:13;;;;;;;;;;;14.60;99.90;;;;;;5014063;28;20023;-75
2022/07/14 02:55:39;;;;;;;;;;;14.60;99.90;;;;;;5031556;28;19965;-75
2022/07/14 02:58:04;;;;;;;;;;;14.60;99.90;;;;;;5029016;28;19978;-75
2022/07/14 03:00:30;;;;;;;;;;;14.60;99.90;;;;;;5003581;28;19924;-75
2022/07/14 03:03:00;;;;;;;;;;;14.50;99.90;;;;;;5010362;28;20003;-75
2022/07/14 03:05:26;;;;;;;;;;;14.60;99.90;;;;;;5029134;28;19917;-75
2022/07/14 03:07:52;;;;;;;;;;;14.50;99.90;;;;;;5007075;28;20293;-75
2022/07/14 03:10:17;;;;;;;;;;;14.50;99.90;;;;;;5028552;28;19983;-75
2022/07/14 03:12:44;;;;;;;;;;;14.40;99.90;;;;;;5007507;28;19917;-75
2022/07/14 03:15:10;;;;;;;;;;;14.50;99.90;;;;;;5020947;28;19952;-75
2022/07/14 03:17:35;;;;;;;;;;;14.40;99.90;;;;;;5013419;28;19917;-75
2022/07/14 03:20:01;;;;;;;;;;;14.40;99.90;;;;;;5026565;28;19979;-75
2022/07/14 03:22:27;;;;;;;;;;;14.40;99.90;;;;;;5008549;28;20552;-75
2022/07/14 03:24:52;;;;;;;;;;;14.30;99.90;;;;;;5023633;28;19917;-75
2022/07/14 03:27:18;;;;;;;;;;;14.30;99.90;;;;;;5028004;28;19925;-75
2022/07/14 03:29:43;;;;;;;;;;;14.30;99.90;;;;;;5001825;28;19919;-75
2022/07/14 03:32:10;;;;;;;;;;;14.20;99.90;;;;;;5009203;28;19917;-75
2022/07/14 03:34:35;;;;;;;;;;;14.20;99.90;;;;;;5026114;28;19917;-75
2022/07/14 03:37:01;;;;;;;;;;;14.20;99.90;;;;;;5028334;28;19966;-75
2022/07/14 03:39:26;;;;;;;;;;;14.30;99.90;;;;;;5006908;28;19971;-75
2022/07/14 03:41:52;;;;;;;;;;;14.20;99.90;;;;;;5007595;28;19928;-75
2022/07/14 03:44:17;;;;;;;;;;;14.20;99.90;;;;;;5011276;28;19927;-75
2022/07/14 03:46:43;;;;;;;;;;;14.20;99.90;;;;;;5024126;28;19917;-75
2022/07/14 03:49:09;;;;;;;;;;;14.20;99.90;;;;;;5020393;28;19937;-75
2022/07/14 03:51:39;;;;;;;;;;;14.10;99.90;;;;;;5026509;28;19920;-75
2022/07/14 03:54:05;;;;;;;;;;;14.20;99.90;;;;;;5026764;28;19917;-75
2022/07/14 03:56:31;;;;;;;;;;;14.10;99.90;;;;;;5006104;28;19917;-75
2022/07/14 03:58:57;;;;;;;;;;;14.10;99.90;;;;;;4986812;28;19917;-75
2022/07/14 04:01:22;;;;;;;;;;;14.00;99.90;;;;;;5025803;28;20050;-75
2022/07/14 04:03:48;;;;;;;;;;;14.00;99.90;;;;;;5008922;28;20001;-75
2022/07/14 04:06:13;;;;;;;;;;;14.00;99.90;;;;;;5035538;28;20261;-75
2022/07/14 04:08:40;;;;;;;;;;;13.90;99.90;;;;;;5008147;28;19929;-75
2022/07/14 04:11:05;;;;;;;;;;;13.90;99.90;;;;;;5017118;28;19917;-75
2022/07/14 04:13:32;;;;;;;;;;;13.90;99.90;;;;;;5034690;28;20287;-75
2022/07/14 04:15:58;;;;;;;;;;;14.00;99.90;;;;;;5016569;28;20553;-75
2022/07/14 04:18:23;;;;;;;;;;;13.90;99.90;;;;;;5033815;28;19979;-75
2022/07/14 04:20:49;;;;;;;;;;;13.90;99.90;;;;;;5018647;28;19925;-75
2022/07/14 04:23:15;;;;;;;;;;;13.80;99.90;;;;;;5024734;28;19920;-75
2022/07/14 04:25:40;;;;;;;;;;;13.80;99.90;;;;;;5013357;28;19924;-75
2022/07/14 04:28:06;;;;;;;;;;;13.80;99.90;;;;;;5012327;28;20435;-75
2022/07/14 04:30:32;;;;;;;;;;;13.90;99.90;;;;;;5027181;28;19944;-75
2022/07/14 04:32:57;;;;;;;;;;;13.80;99.90;;;;;;5028873;28;21260;-74
2022/07/14 04:35:25;;;;;;;;;;;13.90;99.90;;;;;;5034849;28;19921;-74
2022/07/14 04:37:50;;;;;;;;;;;13.80;99.90;;;;;;5085771;22;20273;-71
2022/07/14 04:40:16;;;;;;;;;;;13.90;99.90;;;;;;5002205;28;19921;-71
2022/07/14 04:42:41;;;;;;;;;;;13.90;99.90;;;;;;5008884;28;19991;-70
2022/07/14 04:45:07;;;;;;;;;;;13.90;99.90;;;;;;5008798;28;20345;-70
2022/07/14 04:47:33;;;;;;;;;;;13.90;99.90;;;;;;5005727;28;19944;-70
2022/07/14 04:52:47;;;;;;;;;;;13.90;99.90;;;;;;5001106;28;20177;-71
2022/07/14 04:55:13;;;;;;;;;;;13.90;99.90;;;;;;5026788;28;19925;-70
2022/07/14 04:57:38;;;;;;;;;;;14.10;99.90;;;;;;5027762;28;19982;-71
2022/07/14 05:00:04;;;;;;;;;;;14.10;99.90;;;;;;5021075;28;20245;-70
2022/07/14 05:02:30;;;;;;;;;;;14.10;99.90;;;;;;5006842;28;20313;-70
2022/07/14 05:04:55;;;;;;;;;;;14.10;99.90;;;;;;5019389;28;19920;-71
2022/07/14 05:07:21;;;;;;;;;;;14.10;99.90;;;;;;5018605;28;19922;-71
2022/07/14 05:09:46;;;;;;;;;;;14.20;99.90;;;;;;5017436;28;19925;-70
2022/07/14 05:12:15;;;;;;;;;;;14.20;99.90;;;;;;5024744;28;19917;-71
2022/07/14 05:14:41;;;;;;;;;;;14.20;99.90;;;;;;5026007;28;19921;-71
2022/07/14 05:17:06;;;;;;;;;;;14.30;99.90;;;;;;5008800;28;19923;-71
2022/07/14 05:19:32;;;;;;;;;;;14.40;99.90;;;;;;5026017;28;19929;-71
2022/07/14 05:21:57;;;;;;;;;;;14.40;99.90;;;;;;5023718;28;19943;-72
2022/07/14 05:24:24;;;;;;;;;;;14.50;99.90;;;;;;5011314;28;19925;-72
2022/07/14 05:26:49;;;;;;;;;;;14.50;99.90;;;;;;5025491;28;20024;-71
2022/07/14 05:29:15;;;;;;;;;;;14.60;99.90;;;;;;5025557;28;20318;-71
2022/07/14 05:31:40;;;;;;;;;;;14.60;99.90;;;;;;5025781;28;19924;-71
2022/07/14 05:34:06;;;;;;;;;;;14.70;99.90;;;;;;5008676;28;21425;-71
2022/07/14 05:36:31;;;;;;;;;;;14.60;99.90;;;;;;5024541;28;19917;-71
2022/07/14 05:38:57;;;;;;;;;;;14.70;99.90;;;;;;5013693;28;20009;-71
2022/07/14 05:41:22;;;;;;;;;;;14.70;99.90;;;;;;5026108;28;20184;-72
2022/07/14 05:43:48;;;;;;;;;;;14.80;99.90;;;;;;5008235;28;20508;-72
2022/07/14 05:46:14;;;;;;;;;;;14.80;99.90;;;;;;5004604;28;19916;-72
2022/07/14 05:48:40;;;;;;;;;;;14.90;99.90;;;;;;5022277;28;20570;-72
2022/07/14 05:51:07;;;;;;;;;;;14.90;99.90;;;;;;5017582;28;19928;-71
2022/07/14 05:53:33;;;;;;;;;;;15.00;99.90;;;;;;5025209;28;19956;-72
2022/07/14 05:55:59;;;;;;;;;;;15.00;99.90;;;;;;5026584;28;20016;-72
2022/07/14 05:58:24;;;;;;;;;;;15.10;99.90;;;;;;5023549;28;19917;-71
2022/07/14 06:00:50;;;;;;;;;;;15.10;99.90;;;;;;5019482;28;19925;-71
2022/07/14 06:03:15;;;;;;;;;;;15.20;99.90;;;;;;5023974;28;19928;-71
2022/07/14 06:05:41;;;;;;;;;;;15.20;99.90;;;;;;5000214;28;20274;-71
2022/07/14 06:08:07;;;;;;;;;;;15.20;99.90;;;;;;5005266;28;20019;-71
2022/07/14 06:10:33;;;;;;;;;;;15.30;99.90;;;;;;5000978;28;19949;-71
2022/07/14 06:12:58;;;;;;;;;;;15.40;99.90;;;;;;5024287;28;19983;-72
2022/07/14 06:15:24;;;;;;;;;;;15.50;99.90;;;;;;5019835;28;19917;-71
2022/07/14 06:17:50;;;;;;;;;;;15.50;99.90;;;;;;5001184;28;19982;-73
2022/07/14 06:20:15;;;;;;;;;;;15.60;99.90;;;;;;5016501;28;19917;-72
2022/07/14 06:22:41;;;;;;;;;;;15.60;99.90;;;;;;5025670;28;20337;-72
2022/07/14 06:25:07;;;;;;;;;;;15.70;99.90;;;;;;5004124;28;19939;-72
2022/07/14 06:27:32;;;;;;;;;;;15.70;99.90;;;;;;5025559;28;19921;-72
2022/07/14 06:29:58;;;;;;;;;;;15.80;99.90;;;;;;5005623;28;19917;-72
2022/07/14 06:32:23;;;;;;;;;;;15.80;99.90;;;;;;5025440;28;20369;-73
2022/07/14 06:34:49;;;;;;;;;;;15.90;99.90;;;;;;5023956;28;19991;-72
2022/07/14 06:37:15;;;;;;;;;;;15.90;99.90;;;;;;5028613;28;20212;-73
2022/07/14 06:39:41;;;;;;;;;;;16.00;99.90;;;;;;5021110;28;20016;-72
2022/07/14 06:42:07;;;;;;;;;;;16.10;99.90;;;;;;5010891;28;21374;-73
2022/07/14 06:44:33;;;;;;;;;;;16.10;99.90;;;;;;5024872;28;19921;-72
2022/07/14 06:46:58;;;;;;;;;;;16.10;99.90;;;;;;5001816;28;19924;-73
2022/07/14 06:49:25;;;;;;;;;;;16.20;99.90;;;;;;5019936;28;21511;-73
2022/07/14 06:51:50;;;;;;;;;;;16.20;99.90;;;;;;5017707;28;19916;-72
2022/07/14 06:54:16;;;;;;;;;;;16.10;99.90;;;;;;5028548;28;20400;-73
2022/07/14 06:56:42;;;;;;;;;;;16.20;99.90;;;;;;5024445;28;20058;-73
2022/07/14 06:59:07;;;;;;;;;;;16.30;99.90;;;;;;5015582;28;20254;-73
2022/07/14 07:01:33;;;;;;;;;;;16.40;99.90;;;;;;5005496;28;19921;-73
2022/07/14 07:03:58;;;;;;;;;;;16.40;99.90;;;;;;5026095;28;20254;-72
2022/07/14 07:09:08;;;;;;;;;;;16.50;99.90;;;;;;5019373;28;19964;-73
2022/07/14 07:11:34;;;;;;;;;;;16.60;99.90;;;;;;5015261;28;19968;-73
2022/07/14 07:14:01;;;;;;;;;;;16.70;99.90;;;;;;5007053;28;19917;-74
2022/07/14 07:16:26;;;;;;;;;;;16.70;99.90;;;;;;5018217;28;19943;-73
2022/07/14 07:18:52;;;;;;;;;;;16.70;99.90;;;;;;5007490;28;19921;-73
2022/07/14 07:21:20;;;;;;;;;;;16.80;99.90;;;;;;5021909;28;20067;-73
2022/07/14 07:23:49;;;;;;;;;;;16.90;99.90;;;;;;5012900;28;20306;-73
2022/07/14 07:26:16;;;;;;;;;;;17.00;99.90;;;;;;5022642;28;20287;-73
2022/07/14 07:28:42;;;;;;;;;;;17.00;99.90;;;;;;5016951;28;19976;-73
2022/07/14 07:31:07;;;;;;;;;;;17.00;99.90;;;;;;5015288;28;19997;-73
2022/07/14 07:33:33;;;;;;;;;;;17.20;99.90;;;;;;5004728;28;20385;-73
2022/07/14 07:35:59;;;;;;;;;;;17.20;99.90;;;;;;4997223;28;19947;-73
2022/07/14 07:38:25;;;;;;;;;;;17.20;99.90;;;;;;5020906;28;19917;-73
2022/07/14 07:40:52;;;;;;;;;;;17.20;99.90;;;;;;4994965;28;19921;-73
2022/07/14 07:43:20;;;;;;;;;;;17.20;99.90;;;;;;5004081;28;19917;-73
2022/07/14 07:45:46;;;;;;;;;;;17.30;99.90;;;;;;5021580;28;19928;-73
2022/07/14 07:48:12;;;;;;;;;;;17.30;99.90;;;;;;5022335;28;19974;-73
2022/07/14 07:50:40;;;;;;;;;;;17.40;99.90;;;;;;5011214;28;20020;-73
2022/07/14 07:53:07;;;;;;;;;;;17.40;99.90;;;;;;5015160;28;20357;-73
2022/07/14 07:55:32;;;;;;;;;;;17.50;99.90;;;;;;5021607;28;19917;-73
2022/07/14 07:57:59;;;;;;;;;;;17.50;99.90;;;;;;5017411;28;19925;-73
2022/07/14 08:00:25;;;;;;;;;;;17.50;99.90;;;;;;5019298;28;19929;-73
2022/07/14 08:02:52;;;;;;;;;;;17.70;99.90;;;;;;5006989;28;19921;-73
2022/07/14 08:05:19;;;;;;;;;;;17.70;99.90;;;;;;5017344;28;20023;-73
2022/07/14 08:07:45;;;;;;;;;;;17.80;99.90;;;;;;5003761;28;19921;-73
2022/07/14 08:10:10;;;;;;;;;;;17.80;99.90;;;;;;5018046;28;19936;-73
2022/07/14 08:12:37;;;;;;;;;;;17.80;99.90;;;;;;5019550;28;19928;-73
2022/07/14 08:15:03;;;;;;;;;;;17.90;99.90;;;;;;5020380;28;21924;-73
2022/07/14 08:17:29;;;;;;;;;;;18.00;99.90;;;;;;5021548;28;20076;-73
2022/07/14 08:19:55;;;;;;;;;;;18.00;99.90;;;;;;5023553;28;19917;-74
2022/07/14 08:22:24;;;;;;;;;;;18.10;99.90;;;;;;5006160;28;20011;-74
2022/07/14 08:24:50;;;;;;;;;;;18.10;99.90;;;;;;5015163;28;19951;-73
2022/07/14 08:27:16;;;;;;;;;;;18.20;99.90;;;;;;5020780;28;19924;-73
2022/07/14 08:29:42;;;;;;;;;;;18.20;99.90;;;;;;5017878;28;19916;-74
2022/07/14 08:32:07;;;;;;;;;;;18.30;99.90;;;;;;5023841;28;20357;-73
2022/07/14 08:34:33;;;;;;;;;;;18.20;99.90;;;;;;5017572;28;19952;-73
2022/07/14 08:36:59;;;;;;;;;;;18.40;99.90;;;;;;5012989;28;19979;-73
2022/07/14 08:39:25;;;;;;;;;;;18.40;99.90;;;;;;5001810;28;19963;-74
2022/07/14 08:41:51;;;;;;;;;;;18.40;99.90;;;;;;5003902;28;20012;-73
2022/07/14 08:44:18;;;;;;;;;;;18.60;99.90;;;;;;4999677;28;20365;-73
2022/07/14 08:46:43;;;;;;;;;;;18.50;99.90;;;;;;5022046;28;19956;-73
2022/07/14 08:49:09;;;;;;;;;;;18.60;99.90;;;;;;5022580;28;19972;-73
2022/07/14 08:51:39;;;;;;;;;;;18.60;99.90;;;;;;5019687;28;19917;-73
2022/07/14 08:54:05;;;;;;;;;;;18.70;99.90;;;;;;5009669;28;19975;-73
2022/07/14 08:56:30;;;;;;;;;;;18.60;99.90;;;;;;5021397;28;19917;-74
2022/07/14 08:58:56;;;;;;;;;;;18.80;99.90;;;;;;5017304;28;20360;-73
2022/07/14 09:01:22;;;;;;;;;;;18.80;99.90;;;;;;5012544;28;20388;-73
2022/07/14 09:03:49;;;;;;;;;;;18.80;99.90;;;;;;5021749;28;19929;-73
2022/07/14 09:06:33;;;;;;;;;;;18.90;99.90;;;;;;5019342;28;19965;-73
2022/07/14 09:08:59;;;;;;;;;;;19.00;99.90;;;;;;5004528;28;19921;-74
2022/07/14 09:11:24;;;;;;;;;;;19.00;99.90;;;;;;5021032;28;20403;-74
2022/07/14 09:13:50;;;;;;;;;;;19.10;99.90;;;;;;5022133;28;19917;-74
2022/07/14 09:16:19;;;;;;;;;;;19.10;99.90;;;;;;5024812;28;19917;-74
2022/07/14 09:19:02;;;;;;;;;;;19.00;99.90;;;;;;5006053;28;20393;-73
2022/07/14 09:21:28;;;;;;;;;;;19.10;99.90;;;;;;5003415;28;19921;-74
2022/07/14 09:23:54;;;;;;;;;;;19.10;99.90;;;;;;5016962;28;19948;-74
2022/07/14 09:26:20;;;;;;;;;;;19.20;99.90;;;;;;5023038;28;19917;-73
2022/07/14 09:28:47;;;;;;;;;;;19.30;99.90;;;;;;5009625;28;19921;-73
2022/07/14 09:31:26;;;;;;;;;;;19.30;99.90;;;;;;5018999;28;19963;-74
2022/07/14 09:33:53;;;;;;;;;;;19.30;99.90;;;;;;5004138;28;19931;-74
2022/07/14 09:36:19;;;;;;;;;;;19.30;99.90;;;;;;5021895;28;20297;-74
2022/07/14 09:38:45;;;;;;;;;;;19.30;99.90;;;;;;5003697;28;20002;-74
2022/07/14 09:41:10;;;;;;;;;;;19.50;99.90;;;;;;5021385;28;19918;-73
2022/07/14 09:43:36;;;;;;;;;;;19.50;99.90;;;;;;5008025;28;20119;-74
2022/07/14 09:46:01;;;;;;;;;;;19.40;99.90;;;;;;5017366;28;20298;-74
2022/07/14 09:48:27;;;;;;;;;;;19.50;99.90;;;;;;5021987;28;19925;-74
2022/07/14 09:50:57;;;;;;;;;;;19.50;99.90;;;;;;5016502;28;19928;-80
2022/07/14 09:53:33;;;;;;;;;;;19.50;99.90;;;;;;5001805;28;19960;-74
2022/07/14 09:55:59;;;;;;;;;;;19.50;99.90;;;;;;5025717;28;19918;-74
2022/07/14 09:58:26;;;;;;;;;;;19.50;99.90;;;;;;5025104;28;19963;-73
2022/07/14 10:00:57;;;;;;;;;;;19.50;99.90;;;;;;5024559;28;20000;-74
2022/07/14 10:03:23;;;;;;;;;;;19.60;99.90;;;;;;5012037;28;20015;-75
2022/07/14 10:05:48;;;;;;;;;;;19.40;99.90;;;;;;4992920;28;20506;-76
2022/07/14 10:08:15;;;;;;;;;;;19.50;99.90;;;;;;5017066;28;21532;-74
2022/07/14 10:10:40;;;;;;;;;;;19.50;99.90;;;;;;5017442;28;19940;-76
2022/07/14 10:13:06;;;;;;;;;;;19.60;99.90;;;;;;5006844;28;19993;-76
2022/07/14 10:15:32;;;;;;;;;;;19.60;99.90;;;;;;5025119;28;19921;-74
2022/07/14 10:18:00;;;;;;;;;;;19.60;99.90;;;;;;5024187;28;20911;-75
2022/07/14 10:20:25;;;;;;;;;;;19.50;99.90;;;;;;5002723;28;19971;-76
2022/07/14 10:22:53;;;;;;;;;;;19.50;99.90;;;;;;5024537;28;19916;-75
2022/07/14 10:25:19;;;;;;;;;;;19.60;99.90;;;;;;5023930;28;19971;-75
2022/07/14 10:27:46;;;;;;;;;;;19.70;99.90;;;;;;5024291;28;19925;-75
2022/07/14 10:30:11;;;;;;;;;;;19.70;99.90;;;;;;5016689;28;20296;-74
2022/07/14 10:32:46;;;;;;;;;;;19.80;99.90;;;;;;5022258;28;19933;-75
2022/07/14 10:35:26;;;;;;;;;;;19.90;99.90;;;;;;5025368;28;20417;-75
2022/07/14 10:40:26;;;;;;;;;;;19.90;99.90;;;;;;5058610;28;20555;-76
2022/07/14 10:42:56;;;;;;;;;;;19.80;99.90;;;;;;5047603;28;19965;-74
2022/07/14 10:45:22;;;;;;;;;;;19.80;99.90;;;;;;5039477;28;19916;-78
2022/07/14 10:47:49;;;;;;;;;;;19.70;99.90;;;;;;5063328;28;20061;-74
2022/07/14 10:50:18;;;;;;;;;;;19.70;99.90;;;;;;5062144;28;19924;-74
2022/07/14 10:52:49;;;;;;;;;;;19.70;99.90;;;;;;5061514;28;20021;-74
2022/07/14 10:55:16;;;;;;;;;;;19.70;99.90;;;;;;5062102;28;19924;-74
2022/07/14 10:58:00;;;;;;;;;;;19.70;99.90;;;;;;5048378;28;20428;-74
2022/07/14 11:00:44;;;;;;;;;;;19.70;99.90;;;;;;5063084;28;19916;-74
2022/07/14 11:03:19;;;;;;;;;;;19.70;99.90;;;;;;5065402;28;19932;-74
2022/07/14 11:05:59;;;;;;;;;;;19.70;99.90;;;;;;5043553;28;20364;-73
2022/07/14 11:08:25;;;;;;;;;;;19.60;99.90;;;;;;5055406;28;20024;-74
2022/07/14 11:10:54;;;;;;;;;;;19.60;99.90;;;;;;5046232;28;20023;-76
2022/07/14 11:13:20;;;;;;;;;;;19.60;99.90;;;;;;5046261;28;19916;-74
2022/07/14 11:15:52;;;;;;;;;;;19.60;99.90;;;;;;5025524;28;19936;-76
2022/07/14 11:18:18;;;;;;;;;;;19.60;99.90;;;;;;5047061;28;19963;-74
2022/07/14 11:20:51;;;;;;;;;;;19.60;99.90;;;;;;5065234;28;19963;-79
2022/07/14 11:23:21;;;;;;;;;;;19.70;99.90;;;;;;5054838;28;20362;-75
2022/07/14 11:25:47;;;;;;;;;;;19.60;99.90;;;;;;5025000;28;19916;-77
2022/07/14 11:28:29;;;;;;;;;;;19.70;99.90;;;;;;5051958;28;20387;-76
2022/07/14 11:31:07;;;;;;;;;;;19.80;99.90;;;;;;5043548;28;20007;-79
2022/07/14 11:33:33;;;;;;;;;;;20.00;99.90;;;;;;5048208;28;20312;-79
2022/07/14 11:36:18;;;;;;;;;;;20.20;99.90;;;;;;5066560;28;19956;-76
2022/07/14 11:38:44;;;;;;;;;;;20.50;99.90;;;;;;5026750;28;19999;-77
2022/07/14 11:41:12;;;;;;;;;;;20.60;99.90;;;;;;5044238;28;20384;-75
2022/07/14 11:43:39;;;;;;;;;;;20.60;99.90;;;;;;5066740;28;19920;-73
2022/07/14 11:46:07;;;;;;;;;;;20.60;99.90;;;;;;5044854;28;19920;-77
2022/07/14 11:48:38;;;;;;;;;;;20.70;99.90;;;;;;5048249;28;19943;-74
2022/07/14 11:51:08;;;;;;;;;;;20.80;99.90;;;;;;5050327;28;20021;-75
2022/07/14 11:53:34;;;;;;;;;;;21.00;99.90;;;;;;5044734;28;19916;-78
2022/07/14 11:56:01;;;;;;;;;;;21.00;99.90;;;;;;5047114;28;19916;-74
2022/07/14 11:58:28;;;;;;;;;;;21.10;99.90;;;;;;5043500;28;19925;-74
2022/07/14 12:00:57;;;;;;;;;;;21.20;99.90;;;;;;5053825;28;19916;-75
2022/07/14 12:03:23;;;;;;;;;;;21.20;99.90;;;;;;5038904;28;19917;-75
2022/07/14 12:05:56;;;;;;;;;;;21.10;99.90;;;;;;5065548;28;22686;-80
2022/07/14 12:08:29;;;;;;;;;;;21.20;99.90;;;;;;5042327;28;19928;-81
2022/07/14 12:11:05;;;;;;;;;;;21.20;99.90;;;;;;5059053;28;19943;-75
2022/07/14 12:13:31;;;;;;;;;;;21.30;99.90;;;;;;5037751;28;20418;-74
2022/07/14 12:16:00;;;;;;;;;;;21.50;99.10;;;;;;5051993;28;19924;-74
2022/07/14 12:18:28;;;;;;;;;;;21.60;93.60;;;;;;5056485;28;19930;-75
2022/07/14 12:20:54;;;;;;;;;;;21.50;94.80;;;;;;5043261;28;19917;-74
2022/07/14 12:23:19;;;;;;;;;;;21.50;98.00;;;;;;5075543;28;20284;-75
2022/07/14 12:25:46;;;;;;;;;;;21.40;93.50;;;;;;5070328;28;19920;-75
2022/07/14 12:28:13;;;;;;;;;;;21.50;93.90;;;;;;5067404;28;19925;-76
2022/07/14 12:30:43;;;;;;;;;;;21.60;95.70;;;;;;5062824;28;19916;-74
2022/07/14 12:33:09;;;;;;;;;;;21.70;93.20;;;;;;5060139;28;20302;-75
2022/07/14 12:35:35;;;;;;;;;;;21.80;92.40;;;;;;5035137;28;19916;-74
2022/07/14 12:38:01;;;;;;;;;;;21.80;95.60;;;;;;5069731;28;20422;-75
2022/07/14 12:40:26;;;;;;;;;;;21.80;93.90;;;;;;5047929;28;19916;-75
2022/07/14 12:42:52;;;;;;;;;;;21.70;92.70;;;;;;5053164;28;19985;-75
2022/07/14 12:45:17;;;;;;;;;;;21.60;93.70;;;;;;5070786;28;20372;-78
2022/07/14 12:48:00;;;;;;;;;;;21.60;96.90;;;;;;5052880;28;19921;-74
2022/07/14 12:50:27;;;;;;;;;;;21.70;92.80;;;;;;5047912;28;21234;-74
2022/07/14 12:52:54;;;;;;;;;;;21.50;92.30;;;;;;5061003;28;19935;-72
2022/07/14 12:55:48;;;;;;;;;;;21.50;93.40;;;;;;5053680;28;19916;-74
2022/07/14 12:58:14;;;;;;;;;;;21.40;91.00;;;;;;5041290;28;20423;-79
2022/07/14 13:00:42;;;;;;;;;;;21.40;92.30;;;;;;5046230;28;19996;-78
2022/07/14 13:03:10;;;;;;;;;;;21.40;94.60;;;;;;5037140;28;19916;-76
2022/07/14 13:05:37;;;;;;;;;;;21.50;93.00;;;;;;5042383;28;19970;-74
2022/07/14 13:08:22;;;;;;;;;;;21.60;92.60;;;;;;5049758;28;20373;-73
2022/07/14 13:10:57;;;;;;;;;;;21.70;93.00;;;;;;5061409;28;19916;-74
2022/07/14 13:13:30;;;;;;;;;;;21.80;91.20;;;;;;5053256;28;19917;-74
2022/07/14 13:16:15;;;;;;;;;;;21.80;89.90;;;;;;5047718;28;20061;-74
2022/07/14 13:19:00;;;;;;;;;;;21.80;90.40;;;;;;5051914;28;19959;-74
2022/07/14 13:21:44;;;;;;;;;;;22.00;89.70;;;;;;5063420;28;20285;-75
2022/07/14 13:24:13;;;;;;;;;;;22.00;86.20;;;;;;5063763;28;19970;-75
2022/07/14 13:26:38;;;;;;;;;;;22.00;80.40;;;;;;5065898;28;19939;-75
2022/07/14 13:29:04;;;;;;;;;;;21.90;80.70;;;;;;5056182;28;19924;-74
2022/07/14 13:31:30;;;;;;;;;;;21.80;84.00;;;;;;5059658;28;20011;-73
2022/07/14 13:33:58;;;;;;;;;;;21.80;84.10;;;;;;5050038;28;19958;-75
2022/07/14 13:36:24;;;;;;;;;;;21.80;85.90;;;;;;5075895;28;19916;-74
2022/07/14 13:38:50;;;;;;;;;;;21.60;81.80;;;;;;5067739;28;20014;-74
2022/07/14 13:41:16;;;;;;;;;;;21.50;83.60;;;;;;5036667;28;20623;-74
2022/07/14 13:43:42;;;;;;;;;;;21.40;85.90;;;;;;5045571;28;19928;-73
2022/07/14 13:46:08;;;;;;;;;;;21.40;89.30;;;;;;5052161;28;19928;-74
2022/07/14 13:48:34;;;;;;;;;;;21.30;90.00;;;;;;5065719;28;20070;-74
2022/07/14 13:53:44;;;;;;;;;;;21.50;88.70;;;;;;5051269;28;19924;-75
2022/07/14 13:56:10;;;;;;;;;;;21.60;88.80;;;;;;5069351;28;20365;-72
2022/07/14 13:58:36;;;;;;;;;;;21.60;86.80;;;;;;5050751;28;19920;-74
2022/07/14 14:01:01;;;;;;;;;;;21.40;88.90;;;;;;5039876;28;19923;-73
2022/07/14 14:03:27;;;;;;;;;;;21.40;90.50;;;;;;5048025;28;20763;-74
2022/07/14 14:05:55;;;;;;;;;;;21.30;89.50;;;;;;5065225;28;19969;-75
2022/07/14 14:08:21;;;;;;;;;;;21.20;89.40;;;;;;5050553;28;20287;-74
2022/07/14 14:10:47;;;;;;;;;;;21.20;90.40;;;;;;5043052;28;22344;-74
2022/07/14 14:13:13;;;;;;;;;;;21.30;91.60;;;;;;5042467;28;19920;-74
2022/07/14 14:15:39;;;;;;;;;;;21.40;90.60;;;;;;5049485;28;20364;-73
2022/07/14 14:18:04;;;;;;;;;;;21.40;89.60;;;;;;5050561;28;19920;-73
2022/07/14 14:20:30;;;;;;;;;;;21.50;90.80;;;;;;5065421;28;20347;-73
2022/07/14 14:22:55;;;;;;;;;;;21.70;90.90;;;;;;5049815;28;19995;-73
2022/07/14 14:25:21;;;;;;;;;;;21.90;87.80;;;;;;5049306;28;20019;-73
2022/07/14 14:27:47;;;;;;;;;;;22.10;90.00;;;;;;5040207;28;20003;-73
2022/07/14 14:30:13;;;;;;;;;;;22.10;79.10;;;;;;5065284;28;19917;-74